Elena Of London — 2COR3 — position and weather

sailwx.info

Track history (hours):
 
Tides and Currents Weather Stations Pressure Air Temp Water Temp Dewpoint Dewpoint Depression Visibility Wind Speed Wind Dir Waves Ship Positions

Elena Of London

Last reported at 2017-Aug-22 18:16 UTC. Time now 2017-Aug-23 15:49 UTC.
Position N 38°46' E 015°10'.

Length 44 m; draft 5.2 m.

Type: Sailing vessel. MMSI: 235074534.

Date/timePositionNaut miles runAvg speedWind from/ knotsBaromVisibWave heightAir tempDewpointWater temp
2017-Aug-22 18:16N 38°46' E 015°10'4 9.4
2017-Aug-22 17:50N 38°42' E 015°08'3 2.1
2017-Aug-22 16:23N 38°40' E 015°07'0 0.0
2017-Aug-22 15:55N 38°40' E 015°07'0 0.0
2017-Aug-22 13:41N 38°40' E 015°07'0 0.0
2017-Aug-22 12:35N 38°40' E 015°07'0 0.1
2017-Aug-22 12:29N 38°40' E 015°07'0 0.0
2017-Aug-22 11:59N 38°40' E 015°07'0 0.0
2017-Aug-22 10:11N 38°40' E 015°07'0 0.1
2017-Aug-22 10:00N 38°40' E 015°07'2 1.8
2017-Aug-22 08:54N 38°38' E 015°05'0 0.0
2017-Aug-22 08:30N 38°38' E 015°05'0 0.0
2017-Aug-22 06:16N 38°38' E 015°05'0 0.0
2017-Aug-22 05:40N 38°38' E 015°05'0 0.0
2017-Aug-22 04:40N 38°38' E 015°05'0 0.0
2017-Aug-22 04:22N 38°38' E 015°05'0 0.0
2017-Aug-22 01:04N 38°38' E 015°05'0 0.0
2017-Aug-22 00:46N 38°38' E 015°05'0 0.0
2017-Aug-22 00:22N 38°38' E 015°05'0 0.0
2017-Aug-21 23:58N 38°38' E 015°05'0 0.0
2017-Aug-21 23:22N 38°38' E 015°05'0 0.0
2017-Aug-21 22:58N 38°38' E 015°05'0 0.0
2017-Aug-21 22:28N 38°38' E 015°05'0 0.0
2017-Aug-21 17:14N 38°38' E 015°05'0 0.0
2017-Aug-21 16:58N 38°38' E 015°05'0 1.0
2017-Aug-21 16:30N 38°38' E 015°05'4 7.3
2017-Aug-21 16:00N 38°37' E 015°01'5 9.1
2017-Aug-21 15:30N 38°37' E 014°55'4 7.9
2017-Aug-21 14:59N 38°37' E 014°50'39 5.0
2017-Aug-21 07:06N 38°28' E 014°01'110.2
2017-Aug-21 06:57N 38°27' E 013°59'510.1
2017-Aug-21 06:30N 38°27' E 013°53'510.1
2017-Aug-21 06:00N 38°26' E 013°47'510.3
2017-Aug-21 05:30N 38°25' E 013°40'510.4
2017-Aug-21 05:00N 38°24' E 013°34'510.3
2017-Aug-21 04:30N 38°24' E 013°28'5 9.9
2017-Aug-21 04:00N 38°21' E 013°22'510.2
2017-Aug-21 03:30N 38°20' E 013°16'510.2
2017-Aug-21 03:00N 38°19' E 013°09'510.1
2017-Aug-21 02:30N 38°17' E 013°03'510.0
2017-Aug-21 02:00N 38°16' E 012°57'5 9.8
2017-Aug-21 01:30N 38°15' E 012°51'6 9.6
2017-Aug-21 00:55N 38°13' E 012°44'21 9.6
2017-Aug-20 22:42N 38°05' E 012°19'2 9.3
2017-Aug-20 22:29N 38°04' E 012°17'8 9.0
2017-Aug-20 21:35N 37°59' E 012°09'3 0.3
2017-Aug-20 09:16N 37°57' E 012°05'0 0.0
2017-Aug-20 08:13N 37°57' E 012°05'0 0.0
2017-Aug-20 07:58N 37°57' E 012°05'0 0.0
2017-Aug-20 07:28N 37°57' E 012°05'0 0.0
2017-Aug-20 04:34N 37°57' E 012°05'0 0.1
2017-Aug-20 04:25N 37°57' E 012°05'0 0.0
2017-Aug-20 00:37N 37°57' E 012°05'0 0.0
2017-Aug-19 20:31N 37°57' E 012°05'0 0.0
2017-Aug-19 20:28N 37°57' E 012°05'0 0.0
2017-Aug-19 19:43N 37°57' E 012°05'0 0.0
2017-Aug-19 19:28N 37°57' E 012°05'0 0.0
2017-Aug-19 18:58N 37°57' E 012°05'0 0.0
2017-Aug-19 18:28N 37°57' E 012°05'0 0.0
2017-Aug-19 17:58N 37°57' E 012°05'0 0.0
2017-Aug-19 17:28N 37°57' E 012°05'0 0.0
2017-Aug-19 16:09N 37°57' E 012°05'2 2.1
2017-Aug-19 14:58N 37°60' E 012°05'4 4.3
2017-Aug-19 14:00N 38°03' E 012°09'610.7
2017-Aug-19 13:29N 38°01' E 012°15'4 7.7
2017-Aug-19 12:59N 37°58' E 012°19'2 3.8
2017-Aug-19 12:30N 37°56' E 012°19'0 0.2
2017-Aug-19 12:00N 37°56' E 012°19'0 0.0
2017-Aug-19 11:30N 37°56' E 012°19'0 0.0
2017-Aug-19 09:00N 37°56' E 012°19'0 0.0
2017-Aug-19 08:30N 37°56' E 012°19'6 0.3
2017-Aug-18 12:14N 37°52' E 012°24'1 3.7
2017-Aug-18 11:59N 37°51' E 012°24'3 6.7
2017-Aug-18 11:28N 37°48' E 012°24'31 1.5
2017-Aug-17 14:25N 37°30' E 012°57'410.6
2017-Aug-17 14:00N 37°27' E 013°01'5 9.9
2017-Aug-17 13:30N 37°26' E 013°07'510.1
2017-Aug-17 13:00N 37°23' E 013°13'5 9.9
2017-Aug-17 12:30N 37°21' E 013°19'1 2.3
2017-Aug-17 12:00N 37°21' E 013°20'0 0.0
2017-Aug-17 11:29N 37°21' E 013°20'0 0.0
2017-Aug-17 11:00N 37°21' E 013°20'0 0.0
2017-Aug-17 10:30N 37°21' E 013°20'0 0.0
2017-Aug-17 10:00N 37°21' E 013°20'3 6.3
2017-Aug-17 09:30N 37°18' E 013°22'5 9.3
2017-Aug-17 08:59N 37°15' E 013°25'4 8.5
2017-Aug-17 08:29N 37°12' E 013°30'4 8.2
2017-Aug-17 08:00N 37°10' E 013°34'6 2.1
2017-Aug-17 05:18N 37°10' E 013°41'0 0.0
2017-Aug-17 04:48N 37°10' E 013°41'0 0.0
2017-Aug-16 23:15N 37°10' E 013°41'0 0.0
2017-Aug-16 22:42N 37°10' E 013°41'0 0.0
2017-Aug-16 22:30N 37°10' E 013°41'0 0.0
2017-Aug-16 17:45N 37°10' E 013°41'0 0.0
2017-Aug-16 17:27N 37°10' E 013°41'0 0.0
2017-Aug-16 16:29N 37°10' E 013°41'4 8.6
2017-Aug-16 16:00N 37°08' E 013°46'510.6
2017-Aug-16 15:30N 37°05' E 013°51'510.8
2017-Aug-16 15:00N 37°02' E 013°57'5 9.8
2017-Aug-16 14:30N 36°60' E 014°02'5 9.2
2017-Aug-16 14:00N 36°58' E 014°08'5 9.1
2017-Aug-16 13:30N 36°56' E 014°13'4 9.0
2017-Aug-16 13:00N 36°54' E 014°18'5 9.2
2017-Aug-16 12:30N 36°52' E 014°23'4 8.4
2017-Aug-16 12:00N 36°49' E 014°27'4 8.6
2017-Aug-16 11:30N 36°46' E 014°30'5 9.6
2017-Aug-16 11:00N 36°44' E 014°36'4 8.7
2017-Aug-16 10:30N 36°43' E 014°41'4 8.6
2017-Aug-16 10:00N 36°41' E 014°46'4 7.9
2017-Aug-16 09:30N 36°40' E 014°51'4 7.9
2017-Aug-16 09:00N 36°39' E 014°55'4 7.9
2017-Aug-16 08:30N 36°38' E 015°00'4 7.5
2017-Aug-16 08:00N 36°38' E 015°05'4 8.0
2017-Aug-16 07:30N 36°39' E 015°09'4 7.5
2017-Aug-16 06:57N 36°43' E 015°10'2 0.9
2017-Aug-16 04:15N 36°44' E 015°08'0 0.0
2017-Aug-16 04:00N 36°44' E 015°08'0 0.0
2017-Aug-16 03:25N 36°44' E 015°08'0 0.0
2017-Aug-16 03:00N 36°44' E 015°08'0 0.0
2017-Aug-16 02:30N 36°44' E 015°08'0 0.0
2017-Aug-16 02:00N 36°44' E 015°08'0 0.0
2017-Aug-16 01:30N 36°44' E 015°08'0 0.0
2017-Aug-16 01:01N 36°44' E 015°08'0 0.0
2017-Aug-16 00:30N 36°44' E 015°08'0 0.0
2017-Aug-16 00:00N 36°44' E 015°08'0 0.0
2017-Aug-15 23:30N 36°44' E 015°08'0 0.0
2017-Aug-15 23:00N 36°44' E 015°08'0 0.0
2017-Aug-15 22:30N 36°44' E 015°08'0 0.0
2017-Aug-15 21:58N 36°44' E 015°08'0 0.0
2017-Aug-15 21:30N 36°44' E 015°08'0 0.0
2017-Aug-15 20:59N 36°44' E 015°08'0 0.0
2017-Aug-15 20:29N 36°44' E 015°08'0 0.0
2017-Aug-15 19:58N 36°44' E 015°08'0 0.0
2017-Aug-15 19:28N 36°44' E 015°08'0 0.0
2017-Aug-15 19:00N 36°44' E 015°08'0 0.0
2017-Aug-15 18:29N 36°44' E 015°08'0 0.0
2017-Aug-15 17:59N 36°44' E 015°08'0 0.0
2017-Aug-15 17:29N 36°44' E 015°08'0 0.0
2017-Aug-15 16:59N 36°44' E 015°08'0 0.0
2017-Aug-15 16:29N 36°44' E 015°08'0 0.0
2017-Aug-15 15:59N 36°44' E 015°08'0 0.0
2017-Aug-15 15:28N 36°44' E 015°08'0 0.0
2017-Aug-15 14:58N 36°44' E 015°08'0 0.0
2017-Aug-15 13:55N 36°44' E 015°08'0 0.0
2017-Aug-15 13:28N 36°44' E 015°08'0 0.0
2017-Aug-15 13:00N 36°44' E 015°08'1 1.1
2017-Aug-15 12:30N 36°44' E 015°09'4 7.4
2017-Aug-15 11:56N 36°46' E 015°13'2 3.7
2017-Aug-15 11:30N 36°46' E 015°11'3 6.8
2017-Aug-15 11:00N 36°44' E 015°08'0 0.1
2017-Aug-15 09:45N 36°44' E 015°08'0 0.0
2017-Aug-15 09:29N 36°44' E 015°08'0 0.0
2017-Aug-15 08:51N 36°44' E 015°08'0 0.0
2017-Aug-15 08:30N 36°44' E 015°08'2 4.8
2017-Aug-15 08:00N 36°42' E 015°10'2 0.6
2017-Aug-15 04:49N 36°41' E 015°09'0 0.0
2017-Aug-15 04:30N 36°41' E 015°09'0 0.0
2017-Aug-15 00:53N 36°41' E 015°09'0 0.0
2017-Aug-15 00:30N 36°41' E 015°09'0 0.0
2017-Aug-15 00:00N 36°41' E 015°09'3 2.2
2017-Aug-14 22:27N 36°44' E 015°08'1 1.9
2017-Aug-14 21:58N 36°45' E 015°09'44 9.9
2017-Aug-14 17:30N 37°29' E 015°15'610.3
2017-Aug-14 16:56N 37°34' E 015°15'510.5
2017-Aug-14 16:30N 37°39' E 015°16'510.3
2017-Aug-14 16:00N 37°44' E 015°17'510.7
2017-Aug-14 15:30N 37°49' E 015°19'611.5
2017-Aug-14 15:00N 37°54' E 015°23'611.6
2017-Aug-14 14:30N 37°59' E 015°26'611.4
2017-Aug-14 14:00N 38°04' E 015°30'510.0
2017-Aug-14 13:30N 38°08' E 015°33'612.8
2017-Aug-14 13:00N 38°14' E 015°36'4 8.2
2017-Aug-14 12:30N 38°18' E 015°37'612.5
2017-Aug-14 12:01N 38°21' E 015°30'612.2
2017-Aug-14 11:30N 38°23' E 015°23'612.0
2017-Aug-14 11:00N 38°26' E 015°16'611.9
2017-Aug-14 10:30N 38°29' E 015°10'611.6
2017-Aug-14 10:00N 38°32' E 015°03'611.1
2017-Aug-14 09:29N 38°35' E 014°57'510.8
2017-Aug-14 09:00N 38°38' E 014°51'1311.0
2017-Aug-14 07:51N 38°44' E 014°38'  
Track history (hours):
 
Tides and Currents Weather Stations Pressure Air Temp Water Temp Dewpoint Dewpoint Depression Visibility Wind Speed Wind Dir Waves Ship Positions

Elena Of London

Last reported at 2017-Aug-22 18:16 UTC. Time now 2017-Aug-23 15:49 UTC.
Position N 38°46' E 015°10'.

Length 44 m; draft 5.2 m.

Type: Sailing vessel. MMSI: 235074534.

Date/timePositionNaut miles runAvg speedWind from/ knotsBaromVisibWave heightAir tempDewpointWater temp
2017-Aug-22 18:16N 38°46' E 015°10'4 9.4
2017-Aug-22 17:50N 38°42' E 015°08'3 2.1
2017-Aug-22 16:23N 38°40' E 015°07'0 0.0
2017-Aug-22 15:55N 38°40' E 015°07'0 0.0
2017-Aug-22 13:41N 38°40' E 015°07'0 0.0
2017-Aug-22 12:35N 38°40' E 015°07'0 0.1
2017-Aug-22 12:29N 38°40' E 015°07'0 0.0
2017-Aug-22 11:59N 38°40' E 015°07'0 0.0
2017-Aug-22 10:11N 38°40' E 015°07'0 0.1
2017-Aug-22 10:00N 38°40' E 015°07'2 1.8
2017-Aug-22 08:54N 38°38' E 015°05'0 0.0
2017-Aug-22 08:30N 38°38' E 015°05'0 0.0
2017-Aug-22 06:16N 38°38' E 015°05'0 0.0
2017-Aug-22 05:40N 38°38' E 015°05'0 0.0
2017-Aug-22 04:40N 38°38' E 015°05'0 0.0
2017-Aug-22 04:22N 38°38' E 015°05'0 0.0
2017-Aug-22 01:04N 38°38' E 015°05'0 0.0
2017-Aug-22 00:46N 38°38' E 015°05'0 0.0
2017-Aug-22 00:22N 38°38' E 015°05'0 0.0
2017-Aug-21 23:58N 38°38' E 015°05'0 0.0
2017-Aug-21 23:22N 38°38' E 015°05'0 0.0
2017-Aug-21 22:58N 38°38' E 015°05'0 0.0
2017-Aug-21 22:28N 38°38' E 015°05'0 0.0
2017-Aug-21 17:14N 38°38' E 015°05'0 0.0
2017-Aug-21 16:58N 38°38' E 015°05'0 1.0
2017-Aug-21 16:30N 38°38' E 015°05'4 7.3
2017-Aug-21 16:00N 38°37' E 015°01'5 9.1
2017-Aug-21 15:30N 38°37' E 014°55'4 7.9
2017-Aug-21 14:59N 38°37' E 014°50'39 5.0
2017-Aug-21 07:06N 38°28' E 014°01'110.2
2017-Aug-21 06:57N 38°27' E 013°59'510.1
2017-Aug-21 06:30N 38°27' E 013°53'510.1
2017-Aug-21 06:00N 38°26' E 013°47'510.3
2017-Aug-21 05:30N 38°25' E 013°40'510.4
2017-Aug-21 05:00N 38°24' E 013°34'510.3
2017-Aug-21 04:30N 38°24' E 013°28'5 9.9
2017-Aug-21 04:00N 38°21' E 013°22'510.2
2017-Aug-21 03:30N 38°20' E 013°16'510.2
2017-Aug-21 03:00N 38°19' E 013°09'510.1
2017-Aug-21 02:30N 38°17' E 013°03'510.0
2017-Aug-21 02:00N 38°16' E 012°57'5 9.8
2017-Aug-21 01:30N 38°15' E 012°51'6 9.6
2017-Aug-21 00:55N 38°13' E 012°44'21 9.6
2017-Aug-20 22:42N 38°05' E 012°19'2 9.3
2017-Aug-20 22:29N 38°04' E 012°17'8 9.0
2017-Aug-20 21:35N 37°59' E 012°09'3 0.3
2017-Aug-20 09:16N 37°57' E 012°05'0 0.0
2017-Aug-20 08:13N 37°57' E 012°05'0 0.0
2017-Aug-20 07:58N 37°57' E 012°05'0 0.0
2017-Aug-20 07:28N 37°57' E 012°05'0 0.0
2017-Aug-20 04:34N 37°57' E 012°05'0 0.1
2017-Aug-20 04:25N 37°57' E 012°05'0 0.0
2017-Aug-20 00:37N 37°57' E 012°05'0 0.0
2017-Aug-19 20:31N 37°57' E 012°05'0 0.0
2017-Aug-19 20:28N 37°57' E 012°05'0 0.0
2017-Aug-19 19:43N 37°57' E 012°05'0 0.0
2017-Aug-19 19:28N 37°57' E 012°05'0 0.0
2017-Aug-19 18:58N 37°57' E 012°05'0 0.0
2017-Aug-19 18:28N 37°57' E 012°05'0 0.0
2017-Aug-19 17:58N 37°57' E 012°05'0 0.0
2017-Aug-19 17:28N 37°57' E 012°05'0 0.0
2017-Aug-19 16:09N 37°57' E 012°05'2 2.1
2017-Aug-19 14:58N 37°60' E 012°05'4 4.3
2017-Aug-19 14:00N 38°03' E 012°09'610.7
2017-Aug-19 13:29N 38°01' E 012°15'4 7.7
2017-Aug-19 12:59N 37°58' E 012°19'2 3.8
2017-Aug-19 12:30N 37°56' E 012°19'0 0.2
2017-Aug-19 12:00N 37°56' E 012°19'0 0.0
2017-Aug-19 11:30N 37°56' E 012°19'0 0.0
2017-Aug-19 09:00N 37°56' E 012°19'0 0.0
2017-Aug-19 08:30N 37°56' E 012°19'6 0.3
2017-Aug-18 12:14N 37°52' E 012°24'1 3.7
2017-Aug-18 11:59N 37°51' E 012°24'3 6.7
2017-Aug-18 11:28N 37°48' E 012°24'31 1.5
2017-Aug-17 14:25N 37°30' E 012°57'410.6
2017-Aug-17 14:00N 37°27' E 013°01'5 9.9
2017-Aug-17 13:30N 37°26' E 013°07'510.1
2017-Aug-17 13:00N 37°23' E 013°13'5 9.9
2017-Aug-17 12:30N 37°21' E 013°19'1 2.3
2017-Aug-17 12:00N 37°21' E 013°20'0 0.0
2017-Aug-17 11:29N 37°21' E 013°20'0 0.0
2017-Aug-17 11:00N 37°21' E 013°20'0 0.0
2017-Aug-17 10:30N 37°21' E 013°20'0 0.0
2017-Aug-17 10:00N 37°21' E 013°20'3 6.3
2017-Aug-17 09:30N 37°18' E 013°22'5 9.3
2017-Aug-17 08:59N 37°15' E 013°25'4 8.5
2017-Aug-17 08:29N 37°12' E 013°30'4 8.2
2017-Aug-17 08:00N 37°10' E 013°34'6 2.1
2017-Aug-17 05:18N 37°10' E 013°41'0 0.0
2017-Aug-17 04:48N 37°10' E 013°41'0 0.0
2017-Aug-16 23:15N 37°10' E 013°41'0 0.0
2017-Aug-16 22:42N 37°10' E 013°41'0 0.0
2017-Aug-16 22:30N 37°10' E 013°41'0 0.0
2017-Aug-16 17:45N 37°10' E 013°41'0 0.0
2017-Aug-16 17:27N 37°10' E 013°41'0 0.0
2017-Aug-16 16:29N 37°10' E 013°41'4 8.6
2017-Aug-16 16:00N 37°08' E 013°46'510.6
2017-Aug-16 15:30N 37°05' E 013°51'510.8
2017-Aug-16 15:00N 37°02' E 013°57'5 9.8
2017-Aug-16 14:30N 36°60' E 014°02'5 9.2
2017-Aug-16 14:00N 36°58' E 014°08'5 9.1
2017-Aug-16 13:30N 36°56' E 014°13'4 9.0
2017-Aug-16 13:00N 36°54' E 014°18'5 9.2
2017-Aug-16 12:30N 36°52' E 014°23'4 8.4
2017-Aug-16 12:00N 36°49' E 014°27'4 8.6
2017-Aug-16 11:30N 36°46' E 014°30'5 9.6
2017-Aug-16 11:00N 36°44' E 014°36'4 8.7
2017-Aug-16 10:30N 36°43' E 014°41'4 8.6
2017-Aug-16 10:00N 36°41' E 014°46'4 7.9
2017-Aug-16 09:30N 36°40' E 014°51'4 7.9
2017-Aug-16 09:00N 36°39' E 014°55'4 7.9
2017-Aug-16 08:30N 36°38' E 015°00'4 7.5
2017-Aug-16 08:00N 36°38' E 015°05'4 8.0
2017-Aug-16 07:30N 36°39' E 015°09'4 7.5
2017-Aug-16 06:57N 36°43' E 015°10'2 0.9
2017-Aug-16 04:15N 36°44' E 015°08'0 0.0
2017-Aug-16 04:00N 36°44' E 015°08'0 0.0
2017-Aug-16 03:25N 36°44' E 015°08'0 0.0
2017-Aug-16 03:00N 36°44' E 015°08'0 0.0
2017-Aug-16 02:30N 36°44' E 015°08'0 0.0
2017-Aug-16 02:00N 36°44' E 015°08'0 0.0
2017-Aug-16 01:30N 36°44' E 015°08'0 0.0
2017-Aug-16 01:01N 36°44' E 015°08'0 0.0
2017-Aug-16 00:30N 36°44' E 015°08'0 0.0
2017-Aug-16 00:00N 36°44' E 015°08'0 0.0
2017-Aug-15 23:30N 36°44' E 015°08'0 0.0
2017-Aug-15 23:00N 36°44' E 015°08'0 0.0
2017-Aug-15 22:30N 36°44' E 015°08'0 0.0
2017-Aug-15 21:58N 36°44' E 015°08'0 0.0
2017-Aug-15 21:30N 36°44' E 015°08'0 0.0
2017-Aug-15 20:59N 36°44' E 015°08'0 0.0
2017-Aug-15 20:29N 36°44' E 015°08'0 0.0
2017-Aug-15 19:58N 36°44' E 015°08'0 0.0
2017-Aug-15 19:28N 36°44' E 015°08'0 0.0
2017-Aug-15 19:00N 36°44' E 015°08'0 0.0
2017-Aug-15 18:29N 36°44' E 015°08'0 0.0
2017-Aug-15 17:59N 36°44' E 015°08'0 0.0
2017-Aug-15 17:29N 36°44' E 015°08'0 0.0
2017-Aug-15 16:59N 36°44' E 015°08'0 0.0
2017-Aug-15 16:29N 36°44' E 015°08'0 0.0
2017-Aug-15 15:59N 36°44' E 015°08'0 0.0
2017-Aug-15 15:28N 36°44' E 015°08'0 0.0
2017-Aug-15 14:58N 36°44' E 015°08'0 0.0
2017-Aug-15 13:55N 36°44' E 015°08'0 0.0
2017-Aug-15 13:28N 36°44' E 015°08'0 0.0
2017-Aug-15 13:00N 36°44' E 015°08'1 1.1
2017-Aug-15 12:30N 36°44' E 015°09'4 7.4
2017-Aug-15 11:56N 36°46' E 015°13'2 3.7
2017-Aug-15 11:30N 36°46' E 015°11'3 6.8
2017-Aug-15 11:00N 36°44' E 015°08'0 0.1
2017-Aug-15 09:45N 36°44' E 015°08'0 0.0
2017-Aug-15 09:29N 36°44' E 015°08'0 0.0
2017-Aug-15 08:51N 36°44' E 015°08'0 0.0
2017-Aug-15 08:30N 36°44' E 015°08'2 4.8
2017-Aug-15 08:00N 36°42' E 015°10'2 0.6
2017-Aug-15 04:49N 36°41' E 015°09'0 0.0
2017-Aug-15 04:30N 36°41' E 015°09'0 0.0
2017-Aug-15 00:53N 36°41' E 015°09'0 0.0
2017-Aug-15 00:30N 36°41' E 015°09'0 0.0
2017-Aug-15 00:00N 36°41' E 015°09'3 2.2
2017-Aug-14 22:27N 36°44' E 015°08'1 1.9
2017-Aug-14 21:58N 36°45' E 015°09'44 9.9
2017-Aug-14 17:30N 37°29' E 015°15'610.3
2017-Aug-14 16:56N 37°34' E 015°15'510.5
2017-Aug-14 16:30N 37°39' E 015°16'510.3
2017-Aug-14 16:00N 37°44' E 015°17'510.7
2017-Aug-14 15:30N 37°49' E 015°19'611.5
2017-Aug-14 15:00N 37°54' E 015°23'611.6
2017-Aug-14 14:30N 37°59' E 015°26'611.4
2017-Aug-14 14:00N 38°04' E 015°30'510.0
2017-Aug-14 13:30N 38°08' E 015°33'612.8
2017-Aug-14 13:00N 38°14' E 015°36'4 8.2
2017-Aug-14 12:30N 38°18' E 015°37'612.5
2017-Aug-14 12:01N 38°21' E 015°30'612.2
2017-Aug-14 11:30N 38°23' E 015°23'612.0
2017-Aug-14 11:00N 38°26' E 015°16'611.9
2017-Aug-14 10:30N 38°29' E 015°10'611.6
2017-Aug-14 10:00N 38°32' E 015°03'611.1
2017-Aug-14 09:29N 38°35' E 014°57'510.8
2017-Aug-14 09:00N 38°38' E 014°51'1311.0
2017-Aug-14 07:51N 38°44' E 014°38'  

Dump ship's entire track history